sensor_id;sensor_type;location;lat;lon;timestamp;pressure;altitude;pressure_sealevel;temperature;humidity
47883;BME280;37739;50.350;7.578;2023-10-09T00:00:59;100299.53;;;16.97;85.84
47883;BME280;37739;50.350;7.578;2023-10-09T00:03:29;100303.84;;;16.97;86.04
47883;BME280;37739;50.350;7.578;2023-10-09T00:05:58;100303.00;;;16.96;86.18
47883;BME280;37739;50.350;7.578;2023-10-09T00:08:23;100299.47;;;16.93;86.33
47883;BME280;37739;50.350;7.578;2023-10-09T00:10:56;100301.03;;;16.84;86.51
47883;BME280;37739;50.350;7.578;2023-10-09T00:13:38;100300.75;;;16.72;87.22
47883;BME280;37739;50.350;7.578;2023-10-09T00:16:18;100298.06;;;16.67;87.38
47883;BME280;37739;50.350;7.578;2023-10-09T00:19:03;100288.53;;;16.66;87.50
47883;BME280;37739;50.350;7.578;2023-10-09T00:21:48;100288.56;;;16.68;87.53
47883;BME280;37739;50.350;7.578;2023-10-09T00:24:17;100284.25;;;16.67;87.23
47883;BME280;37739;50.350;7.578;2023-10-09T00:26:48;100286.81;;;16.65;87.44
47883;BME280;37739;50.350;7.578;2023-10-09T00:29:18;100286.75;;;16.62;87.40
47883;BME280;37739;50.350;7.578;2023-10-09T00:31:56;100278.06;;;16.60;87.76
47883;BME280;37739;50.350;7.578;2023-10-09T00:34:50;100275.44;;;16.59;87.72
47883;BME280;37739;50.350;7.578;2023-10-09T00:37:19;100268.50;;;16.56;87.54
47883;BME280;37739;50.350;7.578;2023-10-09T00:39:51;100269.25;;;16.51;88.09
47883;BME280;37739;50.350;7.578;2023-10-09T00:42:37;100264.00;;;16.47;87.82
47883;BME280;37739;50.350;7.578;2023-10-09T00:45:06;100256.25;;;16.49;87.95
47883;BME280;37739;50.350;7.578;2023-10-09T00:47:36;100250.22;;;16.48;87.87
47883;BME280;37739;50.350;7.578;2023-10-09T00:50:07;100257.91;;;16.45;88.08
47883;BME280;37739;50.350;7.578;2023-10-09T00:52:54;100254.38;;;16.40;88.46
47883;BME280;37739;50.350;7.578;2023-10-09T00:55:39;100250.88;;;16.38;88.41
47883;BME280;37739;50.350;7.578;2023-10-09T00:58:08;100254.25;;;16.34;88.25
47883;BME280;37739;50.350;7.578;2023-10-09T01:00:43;100255.00;;;16.28;88.60
47883;BME280;37739;50.350;7.578;2023-10-09T01:03:18;100247.22;;;16.28;88.52
47883;BME280;37739;50.350;7.578;2023-10-09T01:05:53;100243.72;;;16.28;88.53
47883;BME280;37739;50.350;7.578;2023-10-09T01:08:34;100236.78;;;16.25;88.46
47883;BME280;37739;50.350;7.578;2023-10-09T01:11:00;100246.19;;;16.22;88.59
47883;BME280;37739;50.350;7.578;2023-10-09T01:13:41;100234.97;;;16.21;88.48
47883;BME280;37739;50.350;7.578;2023-10-09T01:16:07;100225.38;;;16.16;88.50
47883;BME280;37739;50.350;7.578;2023-10-09T01:18:38;100225.38;;;16.16;88.44
47883;BME280;37739;50.350;7.578;2023-10-09T01:21:06;100228.03;;;16.20;88.14
47883;BME280;37739;50.350;7.578;2023-10-09T01:23:38;100240.13;;;16.20;88.10
47883;BME280;37739;50.350;7.578;2023-10-09T01:26:08;100230.63;;;16.20;88.04
47883;BME280;37739;50.350;7.578;2023-10-09T01:28:39;100232.50;;;16.27;87.81
47883;BME280;37739;50.350;7.578;2023-10-09T01:31:04;100238.63;;;16.31;87.79
47883;BME280;37739;50.350;7.578;2023-10-09T01:33:34;100230.81;;;16.29;87.48
47883;BME280;37739;50.350;7.578;2023-10-09T01:36:01;100230.72;;;16.23;87.74
47883;BME280;37739;50.350;7.578;2023-10-09T01:38:28;100234.13;;;16.21;87.51
47883;BME280;37739;50.350;7.578;2023-10-09T01:41:12;100238.34;;;16.17;88.15
47883;BME280;37739;50.350;7.578;2023-10-09T01:43:41;100243.56;;;16.19;87.86
47883;BME280;37739;50.350;7.578;2023-10-09T01:46:10;100232.31;;;16.18;87.55
47883;BME280;37739;50.350;7.578;2023-10-09T01:48:41;100226.22;;;16.16;87.73
47883;BME280;37739;50.350;7.578;2023-10-09T01:51:14;100226.22;;;16.16;87.47
47883;BME280;37739;50.350;7.578;2023-10-09T01:53:42;100231.41;;;16.16;87.53
47883;BME280;37739;50.350;7.578;2023-10-09T01:56:12;100222.81;;;16.17;87.38
47883;BME280;37739;50.350;7.578;2023-10-09T01:58:42;100224.59;;;16.20;87.31
47883;BME280;37739;50.350;7.578;2023-10-09T02:01:10;100226.34;;;16.21;87.26
47883;BME280;37739;50.350;7.578;2023-10-09T02:03:39;100226.28;;;16.18;87.07
47883;BME280;37739;50.350;7.578;2023-10-09T02:06:10;100227.13;;;16.18;87.30
47883;BME280;37739;50.350;7.578;2023-10-09T02:08:55;100224.59;;;16.20;87.34
47883;BME280;37739;50.350;7.578;2023-10-09T02:11:23;100216.78;;;16.18;87.47
47883;BME280;37739;50.350;7.578;2023-10-09T02:14:04;100214.19;;;16.18;87.23
47883;BME280;37739;50.350;7.578;2023-10-09T02:16:46;100215.09;;;16.19;87.21
47883;BME280;37739;50.350;7.578;2023-10-09T02:19:33;100213.38;;;16.19;87.20
47883;BME280;37739;50.350;7.578;2023-10-09T02:22:02;100205.59;;;16.19;nan
47883;BME280;37739;50.350;7.578;2023-10-09T02:24:44;100202.13;;;16.17;86.97
47883;BME280;37739;50.350;7.578;2023-10-09T02:27:25;100197.75;;;16.16;86.74
47883;BME280;37739;50.350;7.578;2023-10-09T02:30:11;100197.81;;;16.18;86.86
47883;BME280;37739;50.350;7.578;2023-10-09T02:32:54;100205.56;;;16.18;86.94
47883;BME280;37739;50.350;7.578;2023-10-09T02:35:32;100202.97;;;16.18;86.71
47883;BME280;37739;50.350;7.578;2023-10-09T02:38:05;100193.28;;;16.07;87.00
47883;BME280;37739;50.350;7.578;2023-10-09T02:40:40;100195.91;;;16.09;87.16
47883;BME280;37739;50.350;7.578;2023-10-09T02:43:25;100184.75;;;16.12;86.66
47883;BME280;37739;50.350;7.578;2023-10-09T02:45:54;100183.97;;;16.16;86.49
47883;BME280;37739;50.350;7.578;2023-10-09T02:48:19;100184.78;;;16.15;86.60
47883;BME280;37739;50.350;7.578;2023-10-09T02:50:53;100182.19;;;16.13;86.48
47883;BME280;37739;50.350;7.578;2023-10-09T02:53:19;100164.06;;;16.15;86.50
47883;BME280;37739;50.350;7.578;2023-10-09T02:55:45;100168.38;;;16.14;86.45
47883;BME280;37739;50.350;7.578;2023-10-09T02:58:29;100165.81;;;16.14;86.37
47883;BME280;37739;50.350;7.578;2023-10-09T03:00:58;100170.16;;;16.15;86.45
47883;BME280;37739;50.350;7.578;2023-10-09T03:03:23;100167.56;;;16.15;86.28
47883;BME280;37739;50.350;7.578;2023-10-09T03:05:50;100164.97;;;16.15;86.28
47883;BME280;37739;50.350;7.578;2023-10-09T03:08:17;100165.00;;;16.17;86.11
47883;BME280;37739;50.350;7.578;2023-10-09T03:10:47;100170.97;;;16.14;86.34
47883;BME280;37739;50.350;7.578;2023-10-09T03:13:13;100170.97;;;16.14;86.00
47883;BME280;37739;50.350;7.578;2023-10-09T03:15:44;100187.41;;;16.16;86.11
47883;BME280;37739;50.350;7.578;2023-10-09T03:18:13;100178.84;;;16.20;85.63
47883;BME280;37739;50.350;7.578;2023-10-09T03:20:41;100177.16;;;16.22;85.43
47883;BME280;37739;50.350;7.578;2023-10-09T03:23:09;100181.44;;;16.20;85.52
47883;BME280;37739;50.350;7.578;2023-10-09T03:25:39;100174.53;;;16.19;85.33
47883;BME280;37739;50.350;7.578;2023-10-09T03:28:05;100179.72;;;16.19;85.48
47883;BME280;37739;50.350;7.578;2023-10-09T03:30:32;100174.56;;;16.21;85.36
47883;BME280;37739;50.350;7.578;2023-10-09T03:32:59;100169.28;;;16.16;85.45
47883;BME280;37739;50.350;7.578;2023-10-09T03:35:27;100175.94;;;16.03;86.05
47883;BME280;37739;50.350;7.578;2023-10-09T03:38:01;100170.56;;;15.94;86.82
47883;BME280;37739;50.350;7.578;2023-10-09T03:40:42;100168.78;;;15.92;87.01
47883;BME280;37739;50.350;7.578;2023-10-09T03:43:11;100176.44;;;15.87;87.21
47883;BME280;37739;50.350;7.578;2023-10-09T03:45:37;100183.09;;;15.76;87.82
47883;BME280;37739;50.350;7.578;2023-10-09T03:48:04;100185.50;;;15.68;88.47
47883;BME280;37739;50.350;7.578;2023-10-09T03:50:51;100186.50;;;15.73;88.00
47883;BME280;37739;50.350;7.578;2023-10-09T03:53:35;100181.34;;;15.73;88.33
47883;BME280;37739;50.350;7.578;2023-10-09T03:56:09;100184.66;;;15.69;88.58
47883;BME280;37739;50.350;7.578;2023-10-09T03:58:41;100175.25;;;15.73;88.19
47883;BME280;37739;50.350;7.578;2023-10-09T04:01:14;100190.75;;;15.71;88.27
47883;BME280;37739;50.350;7.578;2023-10-09T04:03:56;100182.06;;;15.69;88.34
47883;BME280;37739;50.350;7.578;2023-10-09T04:06:26;100186.34;;;15.67;88.55
47883;BME280;37739;50.350;7.578;2023-10-09T04:08:57;100182.84;;;15.66;88.37
47883;BME280;37739;50.350;7.578;2023-10-09T04:11:27;100172.63;;;15.71;88.34
47883;BME280;37739;50.350;7.578;2023-10-09T04:14:00;100183.97;;;15.75;88.00
47883;BME280;37739;50.350;7.578;2023-10-09T04:16:37;100180.63;;;15.80;87.77
47883;BME280;37739;50.350;7.578;2023-10-09T04:19:16;100182.41;;;15.83;87.55
47883;BME280;37739;50.350;7.578;2023-10-09T04:21:49;100185.06;;;15.86;87.21
47883;BME280;37739;50.350;7.578;2023-10-09T04:24:15;100172.16;;;15.87;86.94
47883;BME280;37739;50.350;7.578;2023-10-09T04:26:41;100173.03;;;15.88;86.99
47883;BME280;37739;50.350;7.578;2023-10-09T04:29:13;100168.69;;;15.87;87.03
47883;BME280;37739;50.350;7.578;2023-10-09T04:32:05;100173.81;;;15.85;87.10
47883;BME280;37739;50.350;7.578;2023-10-09T04:34:37;100164.38;;;15.87;86.77
47883;BME280;37739;50.350;7.578;2023-10-09T04:37:13;100170.47;;;15.89;86.74
47883;BME280;37739;50.350;7.578;2023-10-09T04:39:38;100161.00;;;15.90;86.61
47883;BME280;37739;50.350;7.578;2023-10-09T04:42:11;100175.69;;;15.91;86.37
47883;BME280;37739;50.350;7.578;2023-10-09T04:45:07;100168.78;;;15.90;86.23
47883;BME280;37739;50.350;7.578;2023-10-09T04:47:34;100161.84;;;15.89;86.25
47883;BME280;37739;50.350;7.578;2023-10-09T04:50:25;100155.75;;;15.87;86.48
47883;BME280;37739;50.350;7.578;2023-10-09T04:52:56;100160.03;;;15.85;86.43
47883;BME280;37739;50.350;7.578;2023-10-09T04:55:41;100160.06;;;15.86;86.39
47883;BME280;37739;50.350;7.578;2023-10-09T04:58:22;100159.19;;;15.86;86.38
47883;BME280;37739;50.350;7.578;2023-10-09T05:00:54;100158.31;;;15.85;86.58
47883;BME280;37739;50.350;7.578;2023-10-09T05:03:22;100151.44;;;15.87;86.38
47883;BME280;37739;50.350;7.578;2023-10-09T05:06:11;100156.63;;;15.87;86.11
47883;BME280;37739;50.350;7.578;2023-10-09T05:08:47;100154.84;;;15.85;86.34
47883;BME280;37739;50.350;7.578;2023-10-09T05:11:16;100150.53;;;15.85;86.33
47883;BME280;37739;50.350;7.578;2023-10-09T05:14:07;100157.50;;;15.88;86.02
47883;BME280;37739;50.350;7.578;2023-10-09T05:16:39;100159.25;;;15.89;86.22
47883;BME280;37739;50.350;7.578;2023-10-09T05:19:20;100151.47;;;15.89;85.87
47883;BME280;37739;50.350;7.578;2023-10-09T05:22:09;100159.22;;;15.87;86.23
47883;BME280;37739;50.350;7.578;2023-10-09T05:24:57;100155.69;;;15.84;86.27
47883;BME280;37739;50.350;7.578;2023-10-09T05:27:23;100162.56;;;15.83;86.45
47883;BME280;37739;50.350;7.578;2023-10-09T05:30:11;100172.91;;;15.83;86.37
47883;BME280;37739;50.350;7.578;2023-10-09T05:32:54;100172.09;;;15.84;86.43
47883;BME280;37739;50.350;7.578;2023-10-09T05:35:48;100163.34;;;15.79;86.55
47883;BME280;37739;50.350;7.578;2023-10-09T05:38:34;100163.25;;;15.75;86.92
47883;BME280;37739;50.350;7.578;2023-10-09T05:41:09;100169.94;;;15.66;87.53
47883;BME280;37739;50.350;7.578;2023-10-09T05:43:53;100179.28;;;15.60;88.05
47883;BME280;37739;50.350;7.578;2023-10-09T05:46:44;100181.13;;;15.65;87.86
47883;BME280;37739;50.350;7.578;2023-10-09T05:49:30;100171.78;;;15.72;87.45
47883;BME280;37739;50.350;7.578;2023-10-09T05:52:12;100170.13;;;15.74;87.23
47883;BME280;37739;50.350;7.578;2023-10-09T05:54:56;100172.72;;;15.74;87.33
47883;BME280;37739;50.350;7.578;2023-10-09T05:57:35;100173.63;;;15.75;86.86
47883;BME280;37739;50.350;7.578;2023-10-09T06:00:19;100173.66;;;15.76;87.08
47883;BME280;37739;50.350;7.578;2023-10-09T06:03:03;100174.56;;;15.80;87.02
47883;BME280;37739;50.350;7.578;2023-10-09T06:05:48;100184.03;;;15.79;86.93
47883;BME280;37739;50.350;7.578;2023-10-09T06:08:31;100190.78;;;15.73;87.39
47883;BME280;37739;50.350;7.578;2023-10-09T06:11:10;100196.38;;;15.55;88.84
47883;BME280;37739;50.350;7.578;2023-10-09T06:13:58;100187.84;;;15.57;88.39
47883;BME280;37739;50.350;7.578;2023-10-09T06:16:33;100178.59;;;15.67;88.29
47883;BME280;37739;50.350;7.578;2023-10-09T06:19:26;100174.34;;;15.70;87.80
47883;BME280;37739;50.350;7.578;2023-10-09T06:21:58;100168.47;;;15.76;87.56
47883;BME280;37739;50.350;7.578;2023-10-09T06:24:36;100167.63;;;15.77;87.48
47883;BME280;37739;50.350;7.578;2023-10-09T06:27:11;100176.38;;;15.82;87.04
47883;BME280;37739;50.350;7.578;2023-10-09T06:29:41;100176.31;;;15.81;87.00
47883;BME280;37739;50.350;7.578;2023-10-09T06:32:11;100167.75;;;15.83;87.06
47883;BME280;37739;50.350;7.578;2023-10-09T06:35:00;100180.66;;;15.82;86.85
47883;BME280;37739;50.350;7.578;2023-10-09T06:40:30;100191.06;;;15.85;87.01
47883;BME280;37739;50.350;7.578;2023-10-09T06:43:16;100189.31;;;15.82;87.39
47883;BME280;37739;50.350;7.578;2023-10-09T06:45:44;100186.81;;;15.87;86.94
47883;BME280;37739;50.350;7.578;2023-10-09T06:48:11;100177.34;;;15.89;87.03
47883;BME280;37739;50.350;7.578;2023-10-09T06:51:02;100173.94;;;15.92;86.65
47883;BME280;37739;50.350;7.578;2023-10-09T06:53:46;100179.13;;;15.92;86.93
47883;BME280;37739;50.350;7.578;2023-10-09T06:59:01;100176.53;;;15.92;87.03
47883;BME280;37739;50.350;7.578;2023-10-09T07:01:41;100185.97;;;15.88;86.99
47883;BME280;37739;50.350;7.578;2023-10-09T07:04:14;100192.00;;;15.88;86.96
47883;BME280;37739;50.350;7.578;2023-10-09T07:06:46;100199.91;;;15.95;86.76
47883;BME280;37739;50.350;7.578;2023-10-09T07:09:15;100207.75;;;15.99;86.76
47883;BME280;37739;50.350;7.578;2023-10-09T07:11:46;100217.38;;;16.05;86.67
47883;BME280;37739;50.350;7.578;2023-10-09T07:14:19;100219.16;;;16.07;86.92
47883;BME280;37739;50.350;7.578;2023-10-09T07:17:17;100225.97;;;16.04;87.37
47883;BME280;37739;50.350;7.578;2023-10-09T07:19:58;100231.78;;;15.92;88.13
47883;BME280;37739;50.350;7.578;2023-10-09T07:22:35;100226.72;;;15.98;87.86
47883;BME280;37739;50.350;7.578;2023-10-09T07:25:05;100219.91;;;16.02;87.35
47883;BME280;37739;50.350;7.578;2023-10-09T07:27:39;100217.19;;;15.96;87.90
47883;BME280;37739;50.350;7.578;2023-10-09T07:30:18;100221.47;;;15.94;87.88
47883;BME280;37739;50.350;7.578;2023-10-09T07:35:21;100193.28;;;16.07;87.06
47883;BME280;37739;50.350;7.578;2023-10-09T07:38:14;100187.28;;;16.10;86.56
47883;BME280;37739;50.350;7.578;2023-10-09T07:40:47;100195.06;;;16.10;86.65
47883;BME280;37739;50.350;7.578;2023-10-09T07:43:41;100192.50;;;16.12;86.55
47883;BME280;37739;50.350;7.578;2023-10-09T07:46:12;100189.09;;;16.14;86.11
47883;BME280;37739;50.350;7.578;2023-10-09T07:49:03;100197.72;;;16.13;86.39
47883;BME280;37739;50.350;7.578;2023-10-09T07:51:38;100211.53;;;16.14;86.36
47883;BME280;37739;50.350;7.578;2023-10-09T07:54:06;100220.22;;;16.17;85.87
47883;BME280;37739;50.350;7.578;2023-10-09T07:56:38;100235.81;;;16.20;85.88
47883;BME280;37739;50.350;7.578;2023-10-09T07:59:08;100234.16;;;16.24;85.81
47883;BME280;37739;50.350;7.578;2023-10-09T08:01:44;100230.78;;;16.28;85.58
47883;BME280;37739;50.350;7.578;2023-10-09T08:04:27;100238.59;;;16.29;85.84
47883;BME280;37739;50.350;7.578;2023-10-09T08:07:14;100247.22;;;16.28;86.35
47883;BME280;37739;50.350;7.578;2023-10-09T08:09:53;100246.44;;;16.33;86.01
47883;BME280;37739;50.350;7.578;2023-10-09T08:12:37;100251.69;;;16.37;86.01
47883;BME280;37739;50.350;7.578;2023-10-09T08:15:16;100244.78;;;16.36;85.94
47883;BME280;37739;50.350;7.578;2023-10-09T08:17:45;100242.34;;;16.44;85.92
47883;BME280;37739;50.350;7.578;2023-10-09T08:20:16;100244.16;;;16.48;85.74
47883;BME280;37739;50.350;7.578;2023-10-09T08:22:45;100250.28;;;16.53;85.40
47883;BME280;37739;50.350;7.578;2023-10-09T08:25:18;100250.44;;;16.61;85.12
47883;BME280;37739;50.350;7.578;2023-10-09T08:27:59;100252.22;;;16.63;85.16
47883;BME280;37739;50.350;7.578;2023-10-09T08:30:44;100254.13;;;16.72;84.90
47883;BME280;37739;50.350;7.578;2023-10-09T08:33:18;100248.13;;;16.76;84.65
47883;BME280;37739;50.350;7.578;2023-10-09T08:36:07;100248.25;;;16.81;84.34
47883;BME280;37739;50.350;7.578;2023-10-09T08:38:36;100243.06;;;16.81;84.13
47883;BME280;37739;50.350;7.578;2023-10-09T08:41:11;100253.41;;;16.79;84.40
47883;BME280;37739;50.350;7.578;2023-10-09T08:43:49;100257.75;;;16.80;83.93
47883;BME280;37739;50.350;7.578;2023-10-09T08:46:24;100253.50;;;16.82;83.66
47883;BME280;37739;50.350;7.578;2023-10-09T08:48:54;100243.13;;;16.84;83.64
47883;BME280;37739;50.350;7.578;2023-10-09T08:51:23;100255.34;;;16.88;83.67
47883;BME280;37739;50.350;7.578;2023-10-09T08:53:51;100252.00;;;16.95;83.05
47883;BME280;37739;50.350;7.578;2023-10-09T08:56:21;100251.16;;;16.96;82.88
47883;BME280;37739;50.350;7.578;2023-10-09T08:58:55;100258.22;;;17.03;82.56
47883;BME280;37739;50.350;7.578;2023-10-09T09:01:22;100256.53;;;17.08;82.25
47883;BME280;37739;50.350;7.578;2023-10-09T09:03:54;100261.06;;;17.19;81.59
47883;BME280;37739;50.350;7.578;2023-10-09T09:06:23;100269.97;;;17.35;81.65
47883;BME280;37739;50.350;7.578;2023-10-09T09:08:52;100272.84;;;17.52;80.75
47883;BME280;37739;50.350;7.578;2023-10-09T09:11:26;100264.28;;;17.56;80.54
47883;BME280;37739;50.350;7.578;2023-10-09T09:16:25;100278.97;;;17.57;80.15
47883;BME280;37739;50.350;7.578;2023-10-09T09:19:04;100279.97;;;17.63;80.32
47883;BME280;37739;50.350;7.578;2023-10-09T09:21:32;100290.56;;;17.77;80.20
47883;BME280;37739;50.350;7.578;2023-10-09T09:24:10;100288.13;;;17.87;79.56
47883;BME280;37739;50.350;7.578;2023-10-09T09:26:49;100288.19;;;17.91;79.66
47883;BME280;37739;50.350;7.578;2023-10-09T09:29:45;100272.59;;;17.90;79.38
47883;BME280;37739;50.350;7.578;2023-10-09T09:32:31;100285.41;;;17.82;78.37
47883;BME280;37739;50.350;7.578;2023-10-09T09:35:04;100285.44;;;17.83;79.15
47883;BME280;37739;50.350;7.578;2023-10-09T09:37:36;100281.16;;;17.84;78.89
47883;BME280;37739;50.350;7.578;2023-10-09T09:40:16;100282.06;;;17.86;79.17
47883;BME280;37739;50.350;7.578;2023-10-09T09:42:57;100270.84;;;17.87;78.86
47883;BME280;37739;50.350;7.578;2023-10-09T09:45:37;100265.59;;;17.85;78.26
47883;BME280;37739;50.350;7.578;2023-10-09T09:48:04;100253.50;;;17.84;78.12
47883;BME280;37739;50.350;7.578;2023-10-09T09:50:35;100245.75;;;17.86;77.90
47883;BME280;37739;50.350;7.578;2023-10-09T09:53:11;100250.94;;;17.88;77.72
47883;BME280;37739;50.350;7.578;2023-10-09T09:55:45;100251.03;;;17.94;77.52
47883;BME280;37739;50.350;7.578;2023-10-09T09:58:18;100254.59;;;18.00;77.08
47883;BME280;37739;50.350;7.578;2023-10-09T10:00:50;100259.03;;;18.08;76.64
47883;BME280;37739;50.350;7.578;2023-10-09T10:03:31;100251.34;;;18.17;75.29
47883;BME280;37739;50.350;7.578;2023-10-09T10:06:04;100236.81;;;18.31;75.24
47883;BME280;37739;50.350;7.578;2023-10-09T10:08:37;100219.72;;;18.50;74.10
47883;BME280;37739;50.350;7.578;2023-10-09T10:11:05;100198.22;;;18.63;74.04
47883;BME280;37739;50.350;7.578;2023-10-09T10:16:08;100208.84;;;18.85;73.50
47883;BME280;37739;50.350;7.578;2023-10-09T10:19:01;100210.59;;;18.88;72.21
47883;BME280;37739;50.350;7.578;2023-10-09T10:21:46;100201.09;;;18.90;72.55
47883;BME280;37739;50.350;7.578;2023-10-09T10:27:15;100191.75;;;19.10;71.48
47883;BME280;37739;50.350;7.578;2023-10-09T10:35:20;100203.16;;;19.25;70.58
47883;BME280;37739;50.350;7.578;2023-10-09T10:38:02;100195.38;;;19.29;70.82
47883;BME280;37739;50.350;7.578;2023-10-09T10:40:28;100200.72;;;19.46;69.88
47883;BME280;37739;50.350;7.578;2023-10-09T10:43:18;100198.28;;;19.72;68.17
47883;BME280;37739;50.350;7.578;2023-10-09T10:46:05;100193.22;;;19.94;68.10
47883;BME280;37739;50.350;7.578;2023-10-09T10:48:39;100184.59;;;20.09;66.03
47883;BME280;37739;50.350;7.578;2023-10-09T10:51:05;100175.06;;;20.14;66.11
47883;BME280;37739;50.350;7.578;2023-10-09T10:53:33;100171.59;;;20.12;65.05
47883;BME280;37739;50.350;7.578;2023-10-09T10:56:15;100160.31;;;20.13;65.72
47883;BME280;37739;50.350;7.578;2023-10-09T10:58:41;100159.53;;;20.32;65.93
47883;BME280;37739;50.350;7.578;2023-10-09T11:01:20;100166.50;;;20.53;64.83
47883;BME280;37739;50.350;7.578;2023-10-09T11:03:54;100164.84;;;20.75;64.58
47883;BME280;37739;50.350;7.578;2023-10-09T11:06:26;100164.84;;;20.80;60.70
47883;BME280;37739;50.350;7.578;2023-10-09T11:09:04;100162.25;;;21.05;63.05
47883;BME280;37739;50.350;7.578;2023-10-09T11:11:51;100164.84;;;21.17;61.27
47883;BME280;37739;50.350;7.578;2023-10-09T11:14:20;100161.34;;;21.41;61.99
47883;BME280;37739;50.350;7.578;2023-10-09T11:16:50;100156.13;;;21.56;61.35
47883;BME280;37739;50.350;7.578;2023-10-09T11:19:20;100158.72;;;21.61;60.78
47883;BME280;37739;50.350;7.578;2023-10-09T11:21:54;100161.34;;;21.58;61.19
47883;BME280;37739;50.350;7.578;2023-10-09T11:24:32;100150.94;;;21.47;61.52
47883;BME280;37739;50.350;7.578;2023-10-09T11:27:05;100147.41;;;21.61;60.45
47883;BME280;37739;50.350;7.578;2023-10-09T11:29:35;100147.31;;;21.93;60.10
47883;BME280;37739;50.350;7.578;2023-10-09T11:32:18;100144.66;;;22.07;57.37
47883;BME280;37739;50.350;7.578;2023-10-09T11:34:48;100146.34;;;22.12;56.96
47883;BME280;37739;50.350;7.578;2023-10-09T11:37:18;100144.59;;;22.16;59.04
47883;BME280;37739;50.350;7.578;2023-10-09T11:39:56;100137.66;;;22.13;57.18
47883;BME280;37739;50.350;7.578;2023-10-09T11:42:24;100140.31;;;22.04;56.59
47883;BME280;37739;50.350;7.578;2023-10-09T11:45:20;100142.13;;;21.87;54.48
47883;BME280;37739;50.350;7.578;2023-10-09T11:47:48;100133.44;;;21.83;55.64
47883;BME280;37739;50.350;7.578;2023-10-09T11:50:42;100133.47;;;21.66;54.99
47883;BME280;37739;50.350;7.578;2023-10-09T11:53:14;100131.75;;;21.65;57.87
47883;BME280;37739;50.350;7.578;2023-10-09T11:55:51;100127.41;;;21.58;58.13
47883;BME280;37739;50.350;7.578;2023-10-09T11:58:21;100131.78;;;21.54;58.67
47883;BME280;37739;50.350;7.578;2023-10-09T12:03:25;100122.22;;;21.49;57.91
47883;BME280;37739;50.350;7.578;2023-10-09T12:05:56;100130.06;;;21.49;58.19
47883;BME280;37739;50.350;7.578;2023-10-09T12:08:25;100122.22;;;21.47;57.66
47883;BME280;37739;50.350;7.578;2023-10-09T12:10:54;100120.50;;;21.45;56.37
47883;BME280;37739;50.350;7.578;2023-10-09T12:13:23;100116.97;;;21.41;57.05
47883;BME280;37739;50.350;7.578;2023-10-09T12:15:52;100117.00;;;21.36;56.54
47883;BME280;37739;50.350;7.578;2023-10-09T12:18:22;100123.94;;;21.36;57.07
47883;BME280;37739;50.350;7.578;2023-10-09T12:20:51;100128.31;;;21.38;58.09
47883;BME280;37739;50.350;7.578;2023-10-09T12:23:22;100124.81;;;21.41;57.75
47883;BME280;37739;50.350;7.578;2023-10-09T12:25:49;100122.22;;;21.46;58.53
47883;BME280;37739;50.350;7.578;2023-10-09T12:28:17;100113.53;;;21.47;58.56
47883;BME280;37739;50.350;7.578;2023-10-09T12:30:46;100115.25;;;21.49;58.34
47883;BME280;37739;50.350;7.578;2023-10-09T12:33:19;100118.75;;;21.50;58.40
47883;BME280;37739;50.350;7.578;2023-10-09T12:35:56;100109.16;;;21.46;58.83
47883;BME280;37739;50.350;7.578;2023-10-09T12:38:31;100111.75;;;21.43;58.82
47883;BME280;37739;50.350;7.578;2023-10-09T12:41:05;100098.75;;;21.44;59.11
47883;BME280;37739;50.350;7.578;2023-10-09T12:43:44;100097.88;;;21.45;59.31
47883;BME280;37739;50.350;7.578;2023-10-09T12:46:10;100102.19;;;21.43;59.34
47883;BME280;37739;50.350;7.578;2023-10-09T12:48:44;100102.19;;;21.43;59.78
47883;BME280;37739;50.350;7.578;2023-10-09T12:51:15;100100.47;;;21.47;59.63
47883;BME280;37739;50.350;7.578;2023-10-09T12:53:44;100107.44;;;21.45;60.06
47883;BME280;37739;50.350;7.578;2023-10-09T12:56:14;100102.22;;;21.46;60.45
47883;BME280;37739;50.350;7.578;2023-10-09T12:58:42;100093.50;;;21.50;60.20
47883;BME280;37739;50.350;7.578;2023-10-09T13:01:18;100096.13;;;21.52;60.94
47883;BME280;37739;50.350;7.578;2023-10-09T13:03:46;100102.19;;;21.54;60.68
47883;BME280;37739;50.350;7.578;2023-10-09T13:06:14;100097.84;;;21.51;60.75
47883;BME280;37739;50.350;7.578;2023-10-09T13:08:40;100094.38;;;21.51;60.70
47883;BME280;37739;50.350;7.578;2023-10-09T13:11:08;100096.13;;;21.52;61.28
47883;BME280;37739;50.350;7.578;2023-10-09T13:13:39;100100.44;;;21.54;61.35
47883;BME280;37739;50.350;7.578;2023-10-09T13:18:43;100090.00;;;21.56;61.11
47883;BME280;37739;50.350;7.578;2023-10-09T13:21:18;100095.19;;;21.59;61.41
47883;BME280;37739;50.350;7.578;2023-10-09T13:23:48;100096.06;;;21.61;61.42
47883;BME280;37739;50.350;7.578;2023-10-09T13:26:18;100096.97;;;21.62;61.30
47883;BME280;37739;50.350;7.578;2023-10-09T13:28:51;100106.50;;;21.61;61.22
47883;BME280;37739;50.350;7.578;2023-10-09T13:31:17;100097.78;;;21.68;61.61
47883;BME280;37739;50.350;7.578;2023-10-09T13:33:46;100102.16;;;21.68;61.63
47883;BME280;37739;50.350;7.578;2023-10-09T13:36:14;100104.72;;;21.71;61.77
47883;BME280;37739;50.350;7.578;2023-10-09T13:38:47;100112.56;;;21.72;62.28
47883;BME280;37739;50.350;7.578;2023-10-09T13:41:14;100102.13;;;21.72;61.75
47883;BME280;37739;50.350;7.578;2023-10-09T13:43:43;100102.97;;;21.76;62.19
47883;BME280;37739;50.350;7.578;2023-10-09T13:46:11;100102.13;;;21.77;62.30
47883;BME280;37739;50.350;7.578;2023-10-09T13:48:39;100113.44;;;21.76;62.03
47883;BME280;37739;50.350;7.578;2023-10-09T13:51:09;100110.81;;;21.77;62.03
47883;BME280;37739;50.350;7.578;2023-10-09T13:53:40;100115.16;;;21.79;62.25
47883;BME280;37739;50.350;7.578;2023-10-09T13:56:20;100113.44;;;21.77;62.20